sensor_id;sensor_type;location;lat;lon;timestamp;temperature;humidity
9762;DHT22;4920;49.594;11.022;2022-10-30T00:00:48;13.50;76.50
9762;DHT22;4920;49.594;11.022;2022-10-30T00:03:16;13.60;77.20
9762;DHT22;4920;49.594;11.022;2022-10-30T00:05:46;13.50;80.30
9762;DHT22;4920;49.594;11.022;2022-10-30T00:08:17;13.50;83.20
9762;DHT22;4920;49.594;11.022;2022-10-30T00:14:07;13.60;80.90
9762;DHT22;4920;49.594;11.022;2022-10-30T00:16:35;13.60;78.60
9762;DHT22;4920;49.594;11.022;2022-10-30T00:19:03;13.60;71.30
9762;DHT22;4920;49.594;11.022;2022-10-30T00:21:31;13.60;64.20
9762;DHT22;4920;49.594;11.022;2022-10-30T00:24:01;13.60;67.30
9762;DHT22;4920;49.594;11.022;2022-10-30T00:26:29;13.60;69.10
9762;DHT22;4920;49.594;11.022;2022-10-30T00:28:58;13.70;64.80
9762;DHT22;4920;49.594;11.022;2022-10-30T00:31:26;13.60;59.40
9762;DHT22;4920;49.594;11.022;2022-10-30T00:33:54;13.70;61.80
9762;DHT22;4920;49.594;11.022;2022-10-30T00:36:23;13.70;57.90
9762;DHT22;4920;49.594;11.022;2022-10-30T00:38:51;13.70;52.10
9762;DHT22;4920;49.594;11.022;2022-10-30T00:41:22;13.70;48.40
9762;DHT22;4920;49.594;11.022;2022-10-30T00:43:51;13.60;45.60
9762;DHT22;4920;49.594;11.022;2022-10-30T00:46:24;13.60;45.10
9762;DHT22;4920;49.594;11.022;2022-10-30T00:48:56;13.60;44.30
9762;DHT22;4920;49.594;11.022;2022-10-30T00:51:27;13.60;40.50
9762;DHT22;4920;49.594;11.022;2022-10-30T00:53:58;13.60;43.70
9762;DHT22;4920;49.594;11.022;2022-10-30T00:56:28;13.60;42.20
9762;DHT22;4920;49.594;11.022;2022-10-30T00:59:01;13.60;43.20
9762;DHT22;4920;49.594;11.022;2022-10-30T01:01:39;13.60;43.40
9762;DHT22;4920;49.594;11.022;2022-10-30T01:04:11;13.70;37.60
9762;DHT22;4920;49.594;11.022;2022-10-30T01:06:42;13.70;31.40
9762;DHT22;4920;49.594;11.022;2022-10-30T01:09:14;13.70;29.30
9762;DHT22;4920;49.594;11.022;2022-10-30T01:11:44;13.70;28.20
9762;DHT22;4920;49.594;11.022;2022-10-30T01:14:15;13.70;28.10
9762;DHT22;4920;49.594;11.022;2022-10-30T01:17:01;13.70;29.40
9762;DHT22;4920;49.594;11.022;2022-10-30T01:19:40;13.70;28.90
9762;DHT22;4920;49.594;11.022;2022-10-30T01:22:25;13.70;27.90
9762;DHT22;4920;49.594;11.022;2022-10-30T01:25:05;13.70;25.90
9762;DHT22;4920;49.594;11.022;2022-10-30T01:27:40;13.70;24.50
9762;DHT22;4920;49.594;11.022;2022-10-30T01:30:25;13.60;20.40
9762;DHT22;4920;49.594;11.022;2022-10-30T01:33:06;13.60;18.20
9762;DHT22;4920;49.594;11.022;2022-10-30T01:35:45;13.50;16.70
9762;DHT22;4920;49.594;11.022;2022-10-30T01:38:18;13.50;18.40
9762;DHT22;4920;49.594;11.022;2022-10-30T01:40:51;13.50;19.90
9762;DHT22;4920;49.594;11.022;2022-10-30T01:43:21;13.50;21.20
9762;DHT22;4920;49.594;11.022;2022-10-30T01:46:03;13.40;22.90
9762;DHT22;4920;49.594;11.022;2022-10-30T01:48:56;13.40;23.50
9762;DHT22;4920;49.594;11.022;2022-10-30T01:51:35;13.40;21.50
9762;DHT22;4920;49.594;11.022;2022-10-30T01:54:29;13.40;22.80
9762;DHT22;4920;49.594;11.022;2022-10-30T01:57:05;13.30;24.40
9762;DHT22;4920;49.594;11.022;2022-10-30T01:59:43;13.40;30.50
9762;DHT22;4920;49.594;11.022;2022-10-30T02:02:14;13.30;30.40
9762;DHT22;4920;49.594;11.022;2022-10-30T02:04:43;13.30;35.20
9762;DHT22;4920;49.594;11.022;2022-10-30T02:07:11;13.40;33.90
9762;DHT22;4920;49.594;11.022;2022-10-30T02:09:45;13.30;26.90
9762;DHT22;4920;49.594;11.022;2022-10-30T02:12:14;13.30;24.30
9762;DHT22;4920;49.594;11.022;2022-10-30T02:14:48;13.30;26.90
9762;DHT22;4920;49.594;11.022;2022-10-30T02:17:18;13.30;28.60
9762;DHT22;4920;49.594;11.022;2022-10-30T02:19:48;13.20;29.50
9762;DHT22;4920;49.594;11.022;2022-10-30T02:22:18;13.30;31.10
9762;DHT22;4920;49.594;11.022;2022-10-30T02:24:47;13.30;32.30
9762;DHT22;4920;49.594;11.022;2022-10-30T02:27:15;13.20;26.60
9762;DHT22;4920;49.594;11.022;2022-10-30T02:29:44;13.20;24.90
9762;DHT22;4920;49.594;11.022;2022-10-30T02:32:12;13.20;24.60
9762;DHT22;4920;49.594;11.022;2022-10-30T02:34:41;13.20;26.70
9762;DHT22;4920;49.594;11.022;2022-10-30T02:37:10;13.10;29.30
9762;DHT22;4920;49.594;11.022;2022-10-30T02:39:40;13.20;31.60
9762;DHT22;4920;49.594;11.022;2022-10-30T02:42:08;13.10;33.80
9762;DHT22;4920;49.594;11.022;2022-10-30T02:44:37;13.10;35.20
9762;DHT22;4920;49.594;11.022;2022-10-30T02:47:05;13.10;34.30
9762;DHT22;4920;49.594;11.022;2022-10-30T02:49:33;13.10;33.30
9762;DHT22;4920;49.594;11.022;2022-10-30T02:52:02;13.00;41.30
9762;DHT22;4920;49.594;11.022;2022-10-30T02:54:30;13.00;44.10
9762;DHT22;4920;49.594;11.022;2022-10-30T02:57:00;13.00;49.00
9762;DHT22;4920;49.594;11.022;2022-10-30T02:59:28;13.00;45.70
9762;DHT22;4920;49.594;11.022;2022-10-30T03:01:57;13.00;51.40
9762;DHT22;4920;49.594;11.022;2022-10-30T03:04:26;13.00;51.00
9762;DHT22;4920;49.594;11.022;2022-10-30T03:06:54;13.00;50.90
9762;DHT22;4920;49.594;11.022;2022-10-30T03:09:23;12.90;53.80
9762;DHT22;4920;49.594;11.022;2022-10-30T03:11:51;12.90;58.00
9762;DHT22;4920;49.594;11.022;2022-10-30T03:14:23;12.90;67.70
9762;DHT22;4920;49.594;11.022;2022-10-30T03:16:51;12.90;60.40
9762;DHT22;4920;49.594;11.022;2022-10-30T03:19:20;12.90;64.20
9762;DHT22;4920;49.594;11.022;2022-10-30T03:21:48;12.90;79.10
9762;DHT22;4920;49.594;11.022;2022-10-30T03:24:16;12.80;72.80
9762;DHT22;4920;49.594;11.022;2022-10-30T03:26:45;12.80;83.80
9762;DHT22;4920;49.594;11.022;2022-10-30T03:29:14;12.80;88.10
9762;DHT22;4920;49.594;11.022;2022-10-30T03:31:44;12.80;83.30
9762;DHT22;4920;49.594;11.022;2022-10-30T03:34:18;12.80;85.00
9762;DHT22;4920;49.594;11.022;2022-10-30T03:36:47;12.80;80.70
9762;DHT22;4920;49.594;11.022;2022-10-30T03:39:15;12.80;80.60
9762;DHT22;4920;49.594;11.022;2022-10-30T03:41:45;12.80;79.30
9762;DHT22;4920;49.594;11.022;2022-10-30T03:44:13;12.90;80.50
9762;DHT22;4920;49.594;11.022;2022-10-30T03:46:41;12.80;78.50
9762;DHT22;4920;49.594;11.022;2022-10-30T03:49:24;12.80;75.60
9762;DHT22;4920;49.594;11.022;2022-10-30T03:51:54;12.80;74.00
9762;DHT22;4920;49.594;11.022;2022-10-30T03:54:24;12.70;74.80
9762;DHT22;4920;49.594;11.022;2022-10-30T03:56:52;12.70;77.10
9762;DHT22;4920;49.594;11.022;2022-10-30T03:59:22;12.70;80.40
9762;DHT22;4920;49.594;11.022;2022-10-30T04:02:12;12.70;78.40
9762;DHT22;4920;49.594;11.022;2022-10-30T04:04:42;12.70;82.60
9762;DHT22;4920;49.594;11.022;2022-10-30T04:07:11;12.70;79.50
9762;DHT22;4920;49.594;11.022;2022-10-30T04:09:39;12.60;71.70
9762;DHT22;4920;49.594;11.022;2022-10-30T04:12:07;12.70;77.90
9762;DHT22;4920;49.594;11.022;2022-10-30T04:14:36;12.60;73.70
9762;DHT22;4920;49.594;11.022;2022-10-30T04:17:04;12.60;75.20
9762;DHT22;4920;49.594;11.022;2022-10-30T04:19:32;12.60;80.50
9762;DHT22;4920;49.594;11.022;2022-10-30T04:22:03;12.50;85.30
9762;DHT22;4920;49.594;11.022;2022-10-30T04:24:32;12.40;91.00
9762;DHT22;4920;49.594;11.022;2022-10-30T04:27:01;12.40;90.90
9762;DHT22;4920;49.594;11.022;2022-10-30T04:29:29;12.30;93.90
9762;DHT22;4920;49.594;11.022;2022-10-30T04:31:57;12.30;96.10
9762;DHT22;4920;49.594;11.022;2022-10-30T04:34:26;12.10;96.80
9762;DHT22;4920;49.594;11.022;2022-10-30T04:36:54;12.10;99.20
9762;DHT22;4920;49.594;11.022;2022-10-30T04:39:23;12.00;99.90
9762;DHT22;4920;49.594;11.022;2022-10-30T04:41:57;12.00;99.90
9762;DHT22;4920;49.594;11.022;2022-10-30T04:44:32;11.90;99.90
9762;DHT22;4920;49.594;11.022;2022-10-30T04:47:01;11.80;99.90
9762;DHT22;4920;49.594;11.022;2022-10-30T04:49:29;11.70;99.90
9762;DHT22;4920;49.594;11.022;2022-10-30T04:51:57;11.80;99.90
9762;DHT22;4920;49.594;11.022;2022-10-30T04:54:27;11.80;99.90
9762;DHT22;4920;49.594;11.022;2022-10-30T04:56:56;11.70;99.90
9762;DHT22;4920;49.594;11.022;2022-10-30T04:59:24;11.70;99.90
9762;DHT22;4920;49.594;11.022;2022-10-30T05:01:53;11.60;99.90
9762;DHT22;4920;49.594;11.022;2022-10-30T05:04:22;11.60;99.90
9762;DHT22;4920;49.594;11.022;2022-10-30T05:06:50;11.60;99.90
9762;DHT22;4920;49.594;11.022;2022-10-30T05:09:18;11.60;99.90
9762;DHT22;4920;49.594;11.022;2022-10-30T05:11:48;11.50;99.90
9762;DHT22;4920;49.594;11.022;2022-10-30T05:14:17;11.50;99.90
9762;DHT22;4920;49.594;11.022;2022-10-30T05:16:45;11.50;99.90
9762;DHT22;4920;49.594;11.022;2022-10-30T05:19:13;11.40;99.90
9762;DHT22;4920;49.594;11.022;2022-10-30T05:21:49;11.40;99.90
9762;DHT22;4920;49.594;11.022;2022-10-30T05:24:18;11.40;99.90
9762;DHT22;4920;49.594;11.022;2022-10-30T05:26:48;11.30;99.90
9762;DHT22;4920;49.594;11.022;2022-10-30T05:29:16;11.30;99.90
9762;DHT22;4920;49.594;11.022;2022-10-30T05:31:44;11.20;99.90
9762;DHT22;4920;49.594;11.022;2022-10-30T05:34:15;11.20;99.90
9762;DHT22;4920;49.594;11.022;2022-10-30T05:36:46;11.10;99.90
9762;DHT22;4920;49.594;11.022;2022-10-30T05:39:15;11.10;99.90
9762;DHT22;4920;49.594;11.022;2022-10-30T05:41:48;11.00;99.90
9762;DHT22;4920;49.594;11.022;2022-10-30T05:44:18;11.00;99.90
9762;DHT22;4920;49.594;11.022;2022-10-30T05:47:07;11.00;99.90
9762;DHT22;4920;49.594;11.022;2022-10-30T05:49:36;11.00;99.90
9762;DHT22;4920;49.594;11.022;2022-10-30T05:52:09;11.00;99.90
9762;DHT22;4920;49.594;11.022;2022-10-30T05:54:37;11.00;99.90
9762;DHT22;4920;49.594;11.022;2022-10-30T05:57:13;11.00;99.90
9762;DHT22;4920;49.594;11.022;2022-10-30T05:59:41;10.90;99.90
9762;DHT22;4920;49.594;11.022;2022-10-30T06:02:09;10.90;99.90
9762;DHT22;4920;49.594;11.022;2022-10-30T06:04:37;11.00;99.90
9762;DHT22;4920;49.594;11.022;2022-10-30T06:07:10;11.00;99.90
9762;DHT22;4920;49.594;11.022;2022-10-30T06:09:39;11.10;99.90
9762;DHT22;4920;49.594;11.022;2022-10-30T06:12:28;11.10;99.90
9762;DHT22;4920;49.594;11.022;2022-10-30T06:15:07;11.10;99.90
9762;DHT22;4920;49.594;11.022;2022-10-30T06:17:36;11.00;99.90
9762;DHT22;4920;49.594;11.022;2022-10-30T06:20:14;11.00;99.90
9762;DHT22;4920;49.594;11.022;2022-10-30T06:22:52;11.00;99.90
9762;DHT22;4920;49.594;11.022;2022-10-30T06:25:24;11.10;99.90
9762;DHT22;4920;49.594;11.022;2022-10-30T06:28:00;11.10;99.90
9762;DHT22;4920;49.594;11.022;2022-10-30T06:30:30;11.10;99.90
9762;DHT22;4920;49.594;11.022;2022-10-30T06:33:00;11.20;99.90
9762;DHT22;4920;49.594;11.022;2022-10-30T06:35:30;11.20;99.90
9762;DHT22;4920;49.594;11.022;2022-10-30T06:37:59;11.20;99.90
9762;DHT22;4920;49.594;11.022;2022-10-30T06:40:29;11.20;99.90
9762;DHT22;4920;49.594;11.022;2022-10-30T06:43:17;11.30;99.90
9762;DHT22;4920;49.594;11.022;2022-10-30T06:45:58;11.30;99.90
9762;DHT22;4920;49.594;11.022;2022-10-30T06:48:28;11.40;99.90
9762;DHT22;4920;49.594;11.022;2022-10-30T06:50:58;11.40;99.90
9762;DHT22;4920;49.594;11.022;2022-10-30T06:53:29;11.50;99.90
9762;DHT22;4920;49.594;11.022;2022-10-30T06:56:18;11.50;99.90
9762;DHT22;4920;49.594;11.022;2022-10-30T06:59:09;11.60;99.90
9762;DHT22;4920;49.594;11.022;2022-10-30T07:01:48;11.70;99.90
9762;DHT22;4920;49.594;11.022;2022-10-30T07:04:23;11.70;99.90
9762;DHT22;4920;49.594;11.022;2022-10-30T07:06:54;11.80;99.90
9762;DHT22;4920;49.594;11.022;2022-10-30T07:09:22;11.90;99.90
9762;DHT22;4920;49.594;11.022;2022-10-30T07:11:51;11.90;99.90
9762;DHT22;4920;49.594;11.022;2022-10-30T07:14:42;12.00;99.90
9762;DHT22;4920;49.594;11.022;2022-10-30T07:17:37;12.10;99.90
9762;DHT22;4920;49.594;11.022;2022-10-30T07:20:11;12.10;99.90
9762;DHT22;4920;49.594;11.022;2022-10-30T07:22:39;12.20;97.60
9762;DHT22;4920;49.594;11.022;2022-10-30T07:25:08;12.30;82.70
9762;DHT22;4920;49.594;11.022;2022-10-30T07:27:52;12.30;60.60
9762;DHT22;4920;49.594;11.022;2022-10-30T07:30:57;12.40;47.60
9762;DHT22;4920;49.594;11.022;2022-10-30T07:33:43;12.50;41.40
9762;DHT22;4920;49.594;11.022;2022-10-30T07:36:41;12.60;27.70
9762;DHT22;4920;49.594;11.022;2022-10-30T07:39:22;12.60;10.60
9762;DHT22;4920;49.594;11.022;2022-10-30T07:42:09;12.70;3.10
9762;DHT22;4920;49.594;11.022;2022-10-30T07:45:00;12.80;1.00
9762;DHT22;4920;49.594;11.022;2022-10-30T07:47:41;12.80;1.00
9762;DHT22;4920;49.594;11.022;2022-10-30T07:50:16;12.90;1.00
9762;DHT22;4920;49.594;11.022;2022-10-30T07:52:44;13.00;1.00
9762;DHT22;4920;49.594;11.022;2022-10-30T07:55:16;13.00;1.00
9762;DHT22;4920;49.594;11.022;2022-10-30T07:57:47;13.20;1.00
9762;DHT22;4920;49.594;11.022;2022-10-30T08:00:24;13.30;1.00
9762;DHT22;4920;49.594;11.022;2022-10-30T08:03:03;13.40;1.00
9762;DHT22;4920;49.594;11.022;2022-10-30T08:05:53;13.60;1.00
9762;DHT22;4920;49.594;11.022;2022-10-30T08:08:27;13.80;1.00
9762;DHT22;4920;49.594;11.022;2022-10-30T08:11:07;13.90;1.00
9762;DHT22;4920;49.594;11.022;2022-10-30T08:13:35;14.10;1.00
9762;DHT22;4920;49.594;11.022;2022-10-30T08:16:04;14.30;1.00
9762;DHT22;4920;49.594;11.022;2022-10-30T08:18:33;14.40;1.00
9762;DHT22;4920;49.594;11.022;2022-10-30T08:21:03;14.50;1.00
9762;DHT22;4920;49.594;11.022;2022-10-30T08:23:31;14.60;1.00
9762;DHT22;4920;49.594;11.022;2022-10-30T08:26:06;14.70;1.00
9762;DHT22;4920;49.594;11.022;2022-10-30T08:28:35;14.80;99.90
9762;DHT22;4920;49.594;11.022;2022-10-30T08:31:07;14.90;1.00
9762;DHT22;4920;49.594;11.022;2022-10-30T08:34:15;15.10;99.90
9762;DHT22;4920;49.594;11.022;2022-10-30T08:36:47;15.30;99.90
9762;DHT22;4920;49.594;11.022;2022-10-30T08:39:16;15.50;99.90
9762;DHT22;4920;49.594;11.022;2022-10-30T08:41:56;15.60;1.00
9762;DHT22;4920;49.594;11.022;2022-10-30T08:44:28;15.80;1.00
9762;DHT22;4920;49.594;11.022;2022-10-30T08:47:15;15.90;1.00
9762;DHT22;4920;49.594;11.022;2022-10-30T08:49:46;16.10;1.00
9762;DHT22;4920;49.594;11.022;2022-10-30T08:52:17;16.20;99.80
9762;DHT22;4920;49.594;11.022;2022-10-30T08:54:51;16.40;1.00
9762;DHT22;4920;49.594;11.022;2022-10-30T08:57:22;16.60;99.90
9762;DHT22;4920;49.594;11.022;2022-10-30T08:59:53;16.80;99.90
9762;DHT22;4920;49.594;11.022;2022-10-30T09:02:59;16.90;99.90
9762;DHT22;4920;49.594;11.022;2022-10-30T09:05:48;17.10;99.90
9762;DHT22;4920;49.594;11.022;2022-10-30T09:08:37;17.30;1.00
9762;DHT22;4920;49.594;11.022;2022-10-30T09:11:23;17.40;99.90
9762;DHT22;4920;49.594;11.022;2022-10-30T09:13:52;17.60;1.00
9762;DHT22;4920;49.594;11.022;2022-10-30T09:16:21;17.70;8.50
9762;DHT22;4920;49.594;11.022;2022-10-30T09:18:49;17.90;48.60
9762;DHT22;4920;49.594;11.022;2022-10-30T09:21:19;18.10;1.00
9762;DHT22;4920;49.594;11.022;2022-10-30T09:23:50;18.20;1.00
9762;DHT22;4920;49.594;11.022;2022-10-30T09:26:34;18.40;1.00
9762;DHT22;4920;49.594;11.022;2022-10-30T09:29:09;18.60;1.00
9762;DHT22;4920;49.594;11.022;2022-10-30T09:31:43;18.70;99.90
9762;DHT22;4920;49.594;11.022;2022-10-30T09:34:16;18.90;99.90
9762;DHT22;4920;49.594;11.022;2022-10-30T09:36:52;19.10;99.90
9762;DHT22;4920;49.594;11.022;2022-10-30T09:39:21;19.20;1.00
9762;DHT22;4920;49.594;11.022;2022-10-30T09:42:17;19.30;99.90
9762;DHT22;4920;49.594;11.022;2022-10-30T09:45:07;19.40;99.90
9762;DHT22;4920;49.594;11.022;2022-10-30T09:48:10;19.60;11.00
9762;DHT22;4920;49.594;11.022;2022-10-30T09:51:05;19.70;25.60
9762;DHT22;4920;49.594;11.022;2022-10-30T09:53:48;19.80;31.60
9762;DHT22;4920;49.594;11.022;2022-10-30T09:56:31;19.90;1.00
9762;DHT22;4920;49.594;11.022;2022-10-30T09:59:11;19.90;1.00
9762;DHT22;4920;49.594;11.022;2022-10-30T10:01:48;20.00;1.00
9762;DHT22;4920;49.594;11.022;2022-10-30T10:04:25;20.10;1.00
9762;DHT22;4920;49.594;11.022;2022-10-30T10:07:18;20.20;1.00
9762;DHT22;4920;49.594;11.022;2022-10-30T10:10:24;20.30;1.00
9762;DHT22;4920;49.594;11.022;2022-10-30T10:13:02;20.50;1.00
9762;DHT22;4920;49.594;11.022;2022-10-30T10:15:37;20.70;99.90
9762;DHT22;4920;49.594;11.022;2022-10-30T10:18:18;20.90;99.90
9762;DHT22;4920;49.594;11.022;2022-10-30T10:20:52;21.00;99.90
9762;DHT22;4920;49.594;11.022;2022-10-30T10:23:31;21.20;96.60
9762;DHT22;4920;49.594;11.022;2022-10-30T10:26:06;21.40;2.50
9762;DHT22;4920;49.594;11.022;2022-10-30T10:28:47;21.60;1.00
9762;DHT22;4920;49.594;11.022;2022-10-30T10:31:27;21.90;1.00
9762;DHT22;4920;49.594;11.022;2022-10-30T10:34:08;22.30;1.00
9762;DHT22;4920;49.594;11.022;2022-10-30T10:36:49;22.60;1.00
9762;DHT22;4920;49.594;11.022;2022-10-30T10:39:37;22.90;1.00
9762;DHT22;4920;49.594;11.022;2022-10-30T10:42:17;23.00;1.00
9762;DHT22;4920;49.594;11.022;2022-10-30T10:44:53;23.10;1.00
9762;DHT22;4920;49.594;11.022;2022-10-30T10:47:36;23.20;1.00
9762;DHT22;4920;49.594;11.022;2022-10-30T10:50:17;23.30;1.00
9762;DHT22;4920;49.594;11.022;2022-10-30T10:52:49;23.40;99.90
9762;DHT22;4920;49.594;11.022;2022-10-30T10:55:22;23.50;99.90
9762;DHT22;4920;49.594;11.022;2022-10-30T10:57:55;23.50;99.90
9762;DHT22;4920;49.594;11.022;2022-10-30T11:00:25;23.50;99.90
9762;DHT22;4920;49.594;11.022;2022-10-30T11:02:59;23.60;99.90
9762;DHT22;4920;49.594;11.022;2022-10-30T11:05:33;23.80;99.90
9762;DHT22;4920;49.594;11.022;2022-10-30T11:08:09;24.10;99.90
9762;DHT22;4920;49.594;11.022;2022-10-30T11:10:39;24.20;99.90
9762;DHT22;4920;49.594;11.022;2022-10-30T11:13:11;24.40;99.90
9762;DHT22;4920;49.594;11.022;2022-10-30T11:15:46;24.70;99.90
9762;DHT22;4920;49.594;11.022;2022-10-30T11:18:18;24.80;99.90
9762;DHT22;4920;49.594;11.022;2022-10-30T11:20:54;24.80;99.90
9762;DHT22;4920;49.594;11.022;2022-10-30T11:23:35;24.90;99.90
9762;DHT22;4920;49.594;11.022;2022-10-30T11:26:25;25.00;99.90
9762;DHT22;4920;49.594;11.022;2022-10-30T11:28:57;25.00;99.90
9762;DHT22;4920;49.594;11.022;2022-10-30T11:31:27;25.10;99.90
9762;DHT22;4920;49.594;11.022;2022-10-30T11:34:31;25.10;99.90
9762;DHT22;4920;49.594;11.022;2022-10-30T11:37:00;25.10;99.90
9762;DHT22;4920;49.594;11.022;2022-10-30T11:39:30;25.10;99.90
9762;DHT22;4920;49.594;11.022;2022-10-30T11:42:04;25.20;99.90
9762;DHT22;4920;49.594;11.022;2022-10-30T11:44:36;25.20;99.90
9762;DHT22;4920;49.594;11.022;2022-10-30T11:47:06;25.10;99.90
9762;DHT22;4920;49.594;11.022;2022-10-30T11:49:40;25.20;99.90
9762;DHT22;4920;49.594;11.022;2022-10-30T11:52:11;25.50;99.90
9762;DHT22;4920;49.594;11.022;2022-10-30T11:54:42;25.60;99.90
9762;DHT22;4920;49.594;11.022;2022-10-30T11:57:22;25.70;99.90
9762;DHT22;4920;49.594;11.022;2022-10-30T11:59:54;25.80;99.90
9762;DHT22;4920;49.594;11.022;2022-10-30T12:02:40;25.80;99.90
9762;DHT22;4920;49.594;11.022;2022-10-30T12:05:29;25.80;99.90
9762;DHT22;4920;49.594;11.022;2022-10-30T12:08:19;25.80;99.90
9762;DHT22;4920;49.594;11.022;2022-10-30T12:10:56;25.80;99.90
9762;DHT22;4920;49.594;11.022;2022-10-30T12:13:26;25.80;99.90
9762;DHT22;4920;49.594;11.022;2022-10-30T12:16:20;25.90;99.90
9762;DHT22;4920;49.594;11.022;2022-10-30T12:18:58;25.90;99.90
9762;DHT22;4920;49.594;11.022;2022-10-30T12:21:30;25.80;99.90
9762;DHT22;4920;49.594;11.022;2022-10-30T12:24:03;25.70;99.90
9762;DHT22;4920;49.594;11.022;2022-10-30T12:26:36;25.60;99.90
9762;DHT22;4920;49.594;11.022;2022-10-30T12:29:07;25.50;99.90
9762;DHT22;4920;49.594;11.022;2022-10-30T12:31:45;25.50;99.90
9762;DHT22;4920;49.594;11.022;2022-10-30T12:34:26;25.40;99.90
9762;DHT22;4920;49.594;11.022;2022-10-30T12:37:02;25.40;99.90
9762;DHT22;4920;49.594;11.022;2022-10-30T12:39:42;25.60;99.90
9762;DHT22;4920;49.594;11.022;2022-10-30T12:42:14;25.70;99.90
9762;DHT22;4920;49.594;11.022;2022-10-30T12:44:45;25.90;99.90
9762;DHT22;4920;49.594;11.022;2022-10-30T12:47:25;26.10;99.90
9762;DHT22;4920;49.594;11.022;2022-10-30T12:49:59;26.20;99.90
9762;DHT22;4920;49.594;11.022;2022-10-30T12:52:33;26.30;99.90
9762;DHT22;4920;49.594;11.022;2022-10-30T12:55:13;26.40;99.90
9762;DHT22;4920;49.594;11.022;2022-10-30T12:57:47;26.40;99.90
9762;DHT22;4920;49.594;11.022;2022-10-30T13:00:16;26.40;99.90
9762;DHT22;4920;49.594;11.022;2022-10-30T13:02:52;26.40;99.90
9762;DHT22;4920;49.594;11.022;2022-10-30T13:05:27;26.50;99.90
9762;DHT22;4920;49.594;11.022;2022-10-30T13:08:04;26.50;99.90
9762;DHT22;4920;49.594;11.022;2022-10-30T13:10:38;26.50;99.90
9762;DHT22;4920;49.594;11.022;2022-10-30T13:13:10;26.50;99.90
9762;DHT22;4920;49.594;11.022;2022-10-30T13:15:44;26.40;99.90
9762;DHT22;4920;49.594;11.022;2022-10-30T13:18:16;26.20;99.90
9762;DHT22;4920;49.594;11.022;2022-10-30T13:20:56;26.20;99.90
9762;DHT22;4920;49.594;11.022;2022-10-30T13:23:30;26.10;99.90
9762;DHT22;4920;49.594;11.022;2022-10-30T13:26:09;26.20;99.90
9762;DHT22;4920;49.594;11.022;2022-10-30T13:28:45;26.20;99.90
9762;DHT22;4920;49.594;11.022;2022-10-30T13:31:21;26.10;99.90
9762;DHT22;4920;49.594;11.022;2022-10-30T13:33:59;26.10;99.90
9762;DHT22;4920;49.594;11.022;2022-10-30T13:36:32;26.10;99.90
9762;DHT22;4920;49.594;11.022;2022-10-30T13:39:12;26.00;99.90
9762;DHT22;4920;49.594;11.022;2022-10-30T13:41:54;25.90;99.90
9762;DHT22;4920;49.594;11.022;2022-10-30T13:44:31;25.80;99.90
9762;DHT22;4920;49.594;11.022;2022-10-30T13:47:11;25.70;99.90
9762;DHT22;4920;49.594;11.022;2022-10-30T13:49:54;25.60;99.90
9762;DHT22;4920;49.594;11.022;2022-10-30T13:52:27;25.40;99.90
9762;DHT22;4920;49.594;11.022;2022-10-30T13:54:59;25.00;99.90
9762;DHT22;4920;49.594;11.022;2022-10-30T13:57:33;24.70;99.90
9762;DHT22;4920;49.594;11.022;2022-10-30T14:00:11;24.40;99.90
9762;DHT22;4920;49.594;11.022;2022-10-30T14:02:52;24.20;99.90
9762;DHT22;4920;49.594;11.022;2022-10-30T14:05:30;24.10;99.90
9762;DHT22;4920;49.594;11.022;2022-10-30T14:08:09;24.20;99.90
9762;DHT22;4920;49.594;11.022;2022-10-30T14:10:44;24.30;99.90
9762;DHT22;4920;49.594;11.022;2022-10-30T14:13:23;24.40;99.90
9762;DHT22;4920;49.594;11.022;2022-10-30T14:15:56;24.50;99.90
9762;DHT22;4920;49.594;11.022;2022-10-30T14:18:42;24.50;99.90
9762;DHT22;4920;49.594;11.022;2022-10-30T14:21:44;24.50;99.90
9762;DHT22;4920;49.594;11.022;2022-10-30T14:24:20;24.30;99.90
9762;DHT22;4920;49.594;11.022;2022-10-30T14:26:51;24.10;99.90
9762;DHT22;4920;49.594;11.022;2022-10-30T14:32:38;23.80;99.90
9762;DHT22;4920;49.594;11.022;2022-10-30T14:35:32;23.60;99.90
9762;DHT22;4920;49.594;11.022;2022-10-30T14:38:25;23.50;99.90
9762;DHT22;4920;49.594;11.022;2022-10-30T14:44:02;23.10;99.90
9762;DHT22;4920;49.594;11.022;2022-10-30T14:46:35;22.80;99.90
9762;DHT22;4920;49.594;11.022;2022-10-30T14:49:27;22.70;99.90
9762;DHT22;4920;49.594;11.022;2022-10-30T14:52:11;22.40;99.90
9762;DHT22;4920;49.594;11.022;2022-10-30T14:54:50;22.20;99.90
9762;DHT22;4920;49.594;11.022;2022-10-30T14:57:24;22.10;99.90
9762;DHT22;4920;49.594;11.022;2022-10-30T15:00:28;21.80;99.90
9762;DHT22;4920;49.594;11.022;2022-10-30T15:02:57;21.60;99.90
9762;DHT22;4920;49.594;11.022;2022-10-30T15:05:42;21.50;1.00
9762;DHT22;4920;49.594;11.022;2022-10-30T15:08:32;21.30;1.00
9762;DHT22;4920;49.594;11.022;2022-10-30T15:11:25;21.20;1.00
9762;DHT22;4920;49.594;11.022;2022-10-30T15:13:59;20.90;1.00
9762;DHT22;4920;49.594;11.022;2022-10-30T15:16:28;20.80;1.00
9762;DHT22;4920;49.594;11.022;2022-10-30T15:18:59;20.60;12.10
9762;DHT22;4920;49.594;11.022;2022-10-30T15:21:30;20.50;99.90
9762;DHT22;4920;49.594;11.022;2022-10-30T15:24:00;20.40;99.90
9762;DHT22;4920;49.594;11.022;2022-10-30T15:26:34;20.20;1.00
9762;DHT22;4920;49.594;11.022;2022-10-30T15:29:03;20.10;1.00
9762;DHT22;4920;49.594;11.022;2022-10-30T15:31:32;20.00;1.00
9762;DHT22;4920;49.594;11.022;2022-10-30T15:34:00;19.90;99.90
9762;DHT22;4920;49.594;11.022;2022-10-30T15:36:34;19.80;99.90
9762;DHT22;4920;49.594;11.022;2022-10-30T15:39:10;19.60;1.00
9762;DHT22;4920;49.594;11.022;2022-10-30T15:41:42;19.50;26.70
9762;DHT22;4920;49.594;11.022;2022-10-30T15:44:14;19.30;1.00
9762;DHT22;4920;49.594;11.022;2022-10-30T15:46:44;19.10;99.90
9762;DHT22;4920;49.594;11.022;2022-10-30T15:49:15;19.00;99.90
9762;DHT22;4920;49.594;11.022;2022-10-30T15:51:46;18.80;1.00
9762;DHT22;4920;49.594;11.022;2022-10-30T15:54:18;18.70;1.00
9762;DHT22;4920;49.594;11.022;2022-10-30T15:56:52;18.50;99.90
9762;DHT22;4920;49.594;11.022;2022-10-30T15:59:48;18.40;1.00
9762;DHT22;4920;49.594;11.022;2022-10-30T16:02:20;18.20;4.30
9762;DHT22;4920;49.594;11.022;2022-10-30T16:04:49;18.00;99.90
9762;DHT22;4920;49.594;11.022;2022-10-30T16:07:19;17.80;99.90
9762;DHT22;4920;49.594;11.022;2022-10-30T16:09:52;17.70;1.00
9762;DHT22;4920;49.594;11.022;2022-10-30T16:12:24;17.50;99.90
9762;DHT22;4920;49.594;11.022;2022-10-30T16:14:54;17.40;1.00
9762;DHT22;4920;49.594;11.022;2022-10-30T16:17:23;17.30;99.90
9762;DHT22;4920;49.594;11.022;2022-10-30T16:19:54;17.20;99.90
9762;DHT22;4920;49.594;11.022;2022-10-30T16:22:26;17.00;99.90
9762;DHT22;4920;49.594;11.022;2022-10-30T16:24:56;17.00;99.90
9762;DHT22;4920;49.594;11.022;2022-10-30T16:27:26;16.90;1.00
9762;DHT22;4920;49.594;11.022;2022-10-30T16:29:57;16.80;1.00
9762;DHT22;4920;49.594;11.022;2022-10-30T16:32:28;16.70;1.00
9762;DHT22;4920;49.594;11.022;2022-10-30T16:34:59;16.60;1.00
9762;DHT22;4920;49.594;11.022;2022-10-30T16:37:36;16.60;1.00
9762;DHT22;4920;49.594;11.022;2022-10-30T16:40:11;16.60;1.00
9762;DHT22;4920;49.594;11.022;2022-10-30T16:42:45;16.60;1.00
9762;DHT22;4920;49.594;11.022;2022-10-30T16:45:43;16.50;1.00
9762;DHT22;4920;49.594;11.022;2022-10-30T16:48:16;16.50;1.00